Terminal Aerodrome Forecast
Issued by NWS

Home | Current Version | Previous Version | Graphics & Text | Print | Product List | Glossary On
Versions: 1 2 3 4 5 6 7 8 9 10 11 12
933
FTUS43 KMPX 191129
TAFAXN
TAF
KAXN 191129Z 1912/2012 18007KT P6SM SKC
     FM191700 19015G22KT P6SM SKC
     FM192300 18011KT P6SM SKC=

USA.gov is the U.S. government's official web portal to all federal, state and local government web resources and services.